Terminal Aerodrome Forecast
Issued by NWS Caribou, ME

Home | Current Version | Previous Version | Text Only | Print | Product List | Glossary On
Versions: 1 2 3 4 5 6 7 8 9 10 11 12 13 14 15 16 17 18 19 20
000
FTUS41 KCAR 210856 AAB
TAFCAR
TAF AMD
KCAR 210856Z 2109/2206 VRB02KT 5SM BR SKC
     FM211200 VRB02KT P6SM BKN200
     FM211700 29008KT P6SM BKN110
     FM211800 29009KT P6SM VCSH BKN150
     FM220200 VRB03KT P6SM BKN200=

USA.gov is the U.S. government's official web portal to all federal, state and local government web resources and services.